createdAt,value
2022-07-25T00:00:28.684Z,99301.11
2022-07-25T00:01:34.966Z,99297.59
2022-07-25T00:02:38.704Z,99297.03
2022-07-25T00:04:51.968Z,99294.27
2022-07-25T00:05:54.727Z,99298.15
2022-07-25T00:06:57.722Z,99295.15
2022-07-25T00:08:00.630Z,99296.23
2022-07-25T00:09:04.050Z,99295.16
2022-07-25T00:10:07.863Z,99294.63
2022-07-25T00:11:10.647Z,99294.88
2022-07-25T00:12:13.352Z,99298.42
2022-07-25T00:13:15.935Z,99294.59
2022-07-25T00:14:18.623Z,99295.44
2022-07-25T00:15:21.288Z,99293.55
2022-07-25T00:16:25.001Z,99298.98
2022-07-25T00:17:27.635Z,99295.16
2022-07-25T00:18:30.351Z,99294.11
2022-07-25T00:19:32.925Z,99300.59
2022-07-25T00:20:37.366Z,99296.55
2022-07-25T00:22:51.040Z,99297.87
2022-07-25T00:23:53.842Z,99294.67
2022-07-25T00:24:56.622Z,99295.75
2022-07-25T00:27:09.812Z,99297.31
2022-07-25T00:28:12.634Z,99290.88
2022-07-25T00:29:15.417Z,99293.88
2022-07-25T00:30:20.208Z,99288.72
2022-07-25T00:31:23.026Z,99291.98
2022-07-25T00:32:25.653Z,99291.98
2022-07-25T00:33:28.213Z,99290.91
2022-07-25T00:34:30.813Z,99292.80
2022-07-25T00:35:33.638Z,99295.79
2022-07-25T00:36:36.657Z,99298.79
2022-07-25T00:37:39.322Z,99296.34
2022-07-25T00:38:41.897Z,99301.51
2022-07-25T00:39:44.492Z,99302.62
2022-07-25T00:40:47.394Z,99302.34
2022-07-25T00:41:51.995Z,99311.61
2022-07-25T00:42:54.774Z,99306.17
2022-07-25T00:43:57.438Z,99304.02
2022-07-25T00:45:00.226Z,99308.89
2022-07-25T00:46:03.893Z,99298.82
2022-07-25T00:47:06.932Z,99294.22
2022-07-25T00:48:09.638Z,99290.42
2022-07-25T00:49:12.268Z,99289.89
2022-07-25T00:50:15.943Z,99294.00
2022-07-25T00:51:18.508Z,99285.02
2022-07-25T00:52:21.268Z,99282.82
2022-07-25T00:54:34.713Z,99282.02
2022-07-25T00:55:37.308Z,99286.38
2022-07-25T00:56:40.435Z,99279.02
2022-07-25T00:57:43.015Z,99279.58
2022-07-25T00:58:45.727Z,99285.02
2022-07-25T00:59:48.486Z,99294.52
2022-07-25T01:00:51.305Z,99288.28
2022-07-25T01:01:54.159Z,99286.64
2022-07-25T01:02:57.076Z,99287.20
2022-07-25T01:04:00.005Z,99281.48
2022-07-25T01:05:03.882Z,99289.64
2022-07-25T01:06:07.439Z,99283.66
2022-07-25T01:07:10.240Z,99289.37
2022-07-25T01:08:12.935Z,99284.48
2022-07-25T01:09:15.736Z,99287.48
2022-07-25T01:10:19.123Z,99290.19
2022-07-25T01:11:21.895Z,99291.55
2022-07-25T01:12:24.601Z,99296.45
2022-07-25T01:13:27.311Z,99283.43
2022-07-25T01:14:30.086Z,99290.49
2022-07-25T01:15:33.193Z,99285.34
2022-07-25T01:16:36.005Z,99287.77
2022-07-25T01:17:38.673Z,99294.84
2022-07-25T01:18:41.326Z,99291.05
2022-07-25T01:19:44.049Z,99294.84
2022-07-25T01:20:47.183Z,99284.53
2022-07-25T01:21:50.026Z,99289.95
2022-07-25T01:22:52.921Z,99292.66
2022-07-25T01:23:55.592Z,99290.74
2022-07-25T01:24:58.175Z,99295.09
2022-07-25T01:26:00.865Z,99293.77
2022-07-25T01:27:03.840Z,99296.75
2022-07-25T01:28:06.646Z,99297.03
2022-07-25T01:29:09.323Z,99290.51
2022-07-25T01:30:14.047Z,99298.66
2022-07-25T01:31:16.805Z,99292.42
2022-07-25T01:32:19.513Z,99294.58
2022-07-25T01:33:22.315Z,99295.41
2022-07-25T01:34:24.894Z,99296.23
2022-07-25T01:35:27.479Z,99292.16
2022-07-25T01:36:30.403Z,99299.23
2022-07-25T01:37:33.586Z,99296.78
2022-07-25T01:38:36.370Z,99292.17
2022-07-25T01:39:38.954Z,99299.77
2022-07-25T01:40:42.227Z,99298.43
2022-07-25T01:41:45.122Z,99295.98
2022-07-25T01:42:48.242Z,99298.98
2022-07-25T01:43:50.926Z,99300.33
2022-07-25T01:44:54.004Z,99304.12
2022-07-25T01:45:57.977Z,99302.52
2022-07-25T01:47:00.875Z,99299.23
2022-07-25T01:48:03.942Z,99302.22
2022-07-25T01:49:06.799Z,99298.44
2022-07-25T01:50:10.643Z,99301.69
2022-07-25T01:51:13.341Z,99299.25
2022-07-25T01:52:16.043Z,99295.98
2022-07-25T01:53:18.754Z,99304.13
2022-07-25T01:54:22.670Z,99294.63
2022-07-25T01:55:25.226Z,99296.53
2022-07-25T01:56:31.789Z,99303.59
2022-07-25T01:57:34.201Z,99303.31
2022-07-25T01:58:38.759Z,99304.14
2022-07-25T01:59:41.581Z,99304.14
2022-07-25T02:00:44.551Z,99304.42
2022-07-25T02:01:47.297Z,99302.78
2022-07-25T02:02:50.080Z,99309.01
2022-07-25T02:03:52.810Z,99306.03
2022-07-25T02:04:55.639Z,99308.48
2022-07-25T02:06:03.780Z,99309.56
2022-07-25T02:07:06.482Z,99305.77
2022-07-25T02:08:10.609Z,99308.48
2022-07-25T02:09:13.686Z,99310.09
2022-07-25T02:10:17.011Z,99305.48
2022-07-25T02:11:19.865Z,99309.00
2022-07-25T02:12:22.677Z,99309.27
2022-07-25T02:13:25.677Z,99307.13
2022-07-25T02:14:28.251Z,99308.47
2022-07-25T02:15:30.915Z,99304.92
2022-07-25T02:16:35.741Z,99311.72
2022-07-25T02:17:38.504Z,99311.73
2022-07-25T02:18:41.503Z,99304.66
2022-07-25T02:19:44.176Z,99310.09
2022-07-25T02:20:46.942Z,99311.73
2022-07-25T02:21:49.998Z,99307.37
2022-07-25T02:22:52.682Z,99299.23
2022-07-25T02:23:55.475Z,99308.45
2022-07-25T02:24:58.277Z,99307.34
2022-07-25T02:26:01.069Z,99308.69
2022-07-25T02:27:04.475Z,99307.64
2022-07-25T02:28:07.053Z,99308.45
2022-07-25T02:29:11.766Z,99304.36
2022-07-25T02:30:14.925Z,99305.70
2022-07-25T02:31:17.680Z,99305.98
2022-07-25T02:32:20.615Z,99308.16
2022-07-25T02:33:23.289Z,99305.70
2022-07-25T02:34:25.970Z,99304.91
2022-07-25T02:35:28.541Z,99302.45
2022-07-25T02:36:32.256Z,99301.38
2022-07-25T02:37:35.031Z,99301.38
2022-07-25T02:38:37.807Z,99297.57
2022-07-25T02:39:40.509Z,99304.34
2022-07-25T02:40:43.731Z,99306.25
2022-07-25T02:41:46.694Z,99307.86
2022-07-25T02:42:49.394Z,99311.68
2022-07-25T02:43:52.289Z,99306.52
2022-07-25T02:44:55.035Z,99308.40
2022-07-25T02:45:57.885Z,99300.80
2022-07-25T02:47:00.792Z,99305.95
2022-07-25T02:48:04.196Z,99311.68
2022-07-25T02:49:07.137Z,99317.38
2022-07-25T02:50:12.141Z,99304.08
2022-07-25T02:51:15.234Z,99310.05
2022-07-25T02:52:17.913Z,99312.75
2022-07-25T02:53:39.929Z,99308.40
2022-07-25T02:54:25.282Z,99317.91
2022-07-25T02:55:27.863Z,99318.17
2022-07-25T02:56:32.105Z,99325.24
2022-07-25T02:57:34.966Z,99314.66
2022-07-25T02:58:37.730Z,99323.06
2022-07-25T02:59:42.337Z,99314.92
2022-07-25T03:00:45.147Z,99321.96
2022-07-25T03:01:47.956Z,99320.36
2022-07-25T03:02:50.930Z,99319.81
2022-07-25T03:03:53.784Z,99322.53
2022-07-25T03:04:56.646Z,99315.20
2022-07-25T03:05:59.319Z,99323.06
2022-07-25T03:07:03.033Z,99320.08
2022-07-25T03:08:05.910Z,99321.98
2022-07-25T03:09:08.700Z,99321.45
2022-07-25T03:10:12.757Z,99323.09
2022-07-25T03:11:15.429Z,99323.63
2022-07-25T03:12:18.100Z,99329.59
2022-07-25T03:13:20.883Z,99322.84
2022-07-25T03:14:23.674Z,99321.20
2022-07-25T03:16:36.979Z,99322.05
2022-07-25T03:17:39.729Z,99322.84
2022-07-25T03:18:42.533Z,99331.25
2022-07-25T03:19:45.302Z,99320.94
2022-07-25T03:20:48.237Z,99317.41
2022-07-25T03:21:51.016Z,99320.69
2022-07-25T03:22:53.718Z,99324.47
2022-07-25T03:23:56.534Z,99328.29
2022-07-25T03:24:59.197Z,99323.13
2022-07-25T03:26:01.891Z,99322.59
2022-07-25T03:27:04.466Z,99324.77
2022-07-25T03:28:07.151Z,99319.34
2022-07-25T03:29:09.736Z,99320.41
2022-07-25T03:30:14.342Z,99316.08
2022-07-25T03:31:17.000Z,99320.69
2022-07-25T03:32:19.913Z,99310.09
2022-07-25T03:33:22.481Z,99311.45
2022-07-25T03:34:25.165Z,99306.30
2022-07-25T03:35:27.945Z,99309.55
2022-07-25T03:36:30.720Z,99306.30
2022-07-25T03:37:33.396Z,99299.23
2022-07-25T03:38:36.227Z,99304.39
2022-07-25T03:39:38.942Z,99311.45
2022-07-25T03:40:42.122Z,99314.19
2022-07-25T03:41:44.820Z,99306.30
2022-07-25T03:42:47.681Z,99316.36
2022-07-25T03:43:50.372Z,99317.97
2022-07-25T03:44:53.067Z,99312.00
2022-07-25T03:45:55.711Z,99313.35
2022-07-25T03:46:58.742Z,99306.58
2022-07-25T03:48:01.517Z,99315.52
2022-07-25T03:49:04.320Z,99313.08
2022-07-25T03:50:09.230Z,99311.47
2022-07-25T03:51:11.937Z,99307.11
2022-07-25T03:52:14.608Z,99316.62
2022-07-25T03:53:17.284Z,99316.34
2022-07-25T03:54:19.951Z,99316.62
2022-07-25T03:55:22.635Z,99319.31
2022-07-25T03:56:26.001Z,99313.89
2022-07-25T03:57:28.717Z,99320.97
2022-07-25T03:58:31.306Z,99324.22
2022-07-25T03:59:34.014Z,99319.34
2022-07-25T04:00:36.971Z,99323.40
2022-07-25T04:01:40.071Z,99326.66
2022-07-25T04:02:43.114Z,99332.09
2022-07-25T04:03:45.944Z,99328.02
2022-07-25T04:04:48.622Z,99332.09
2022-07-25T04:05:51.199Z,99333.16
2022-07-25T04:06:53.962Z,99335.34
2022-07-25T04:07:56.944Z,99335.09
2022-07-25T04:08:59.539Z,99330.45
2022-07-25T04:10:03.743Z,99333.73
2022-07-25T04:11:06.457Z,99332.89
2022-07-25T04:12:09.275Z,99331.27
2022-07-25T04:13:12.081Z,99331.25
2022-07-25T04:14:14.862Z,99327.99
2022-07-25T04:15:17.558Z,99326.64
2022-07-25T04:16:22.384Z,99330.70
2022-07-25T04:17:25.293Z,99329.34
2022-07-25T04:18:28.985Z,99320.65
2022-07-25T04:19:32.100Z,99322.55
2022-07-25T04:20:36.415Z,99332.31
2022-07-25T04:21:39.325Z,99327.17
2022-07-25T04:22:46.264Z,99335.05
2022-07-25T04:23:47.707Z,99332.86
2022-07-25T04:24:50.376Z,99328.23
2022-07-25T04:25:52.970Z,99328.79
2022-07-25T04:26:55.893Z,99334.20
2022-07-25T04:27:58.476Z,99335.28
2022-07-25T04:29:01.142Z,99325.50
2022-07-25T04:30:04.656Z,99324.67
2022-07-25T04:31:07.333Z,99324.95
2022-07-25T04:32:10.107Z,99328.16
2022-07-25T04:33:13.110Z,99321.13
2022-07-25T04:34:15.840Z,99330.88
2022-07-25T04:35:18.614Z,99325.72
2022-07-25T04:36:22.306Z,99339.28
2022-07-25T04:37:25.007Z,99325.42
2022-07-25T04:38:27.715Z,99332.21
2022-07-25T04:39:30.539Z,99334.89
2022-07-25T04:40:33.846Z,99340.30
2022-07-25T04:41:36.510Z,99336.22
2022-07-25T04:42:39.164Z,99341.38
2022-07-25T04:43:47.952Z,99342.47
2022-07-25T04:44:46.838Z,99338.38
2022-07-25T04:45:49.524Z,99341.91
2022-07-25T04:46:52.692Z,99342.42
2022-07-25T04:47:55.471Z,99338.11
2022-07-25T04:48:58.190Z,99332.42
2022-07-25T04:50:01.064Z,99325.06
2022-07-25T04:51:03.998Z,99328.34
2022-07-25T04:52:06.782Z,99334.34
2022-07-25T04:53:09.456Z,99332.18
2022-07-25T04:54:12.123Z,99335.17
2022-07-25T04:55:14.822Z,99339.50
2022-07-25T04:56:19.064Z,99337.34
2022-07-25T04:57:21.738Z,99338.11
2022-07-25T04:58:24.433Z,99341.66
2022-07-25T04:59:27.116Z,99335.66
2022-07-25T05:00:31.056Z,99338.94
2022-07-25T05:01:34.656Z,99341.94
2022-07-25T05:02:37.626Z,99345.19
2022-07-25T05:03:40.499Z,99349.27
2022-07-25T05:04:45.392Z,99350.09
2022-07-25T05:05:47.975Z,99341.14
2022-07-25T05:06:50.874Z,99354.45
2022-07-25T05:07:57.664Z,99345.77
2022-07-25T05:09:00.390Z,99346.82
2022-07-25T05:10:04.213Z,99343.02
2022-07-25T05:11:06.888Z,99344.63
2022-07-25T05:12:09.549Z,99350.06
2022-07-25T05:13:12.337Z,99338.38
2022-07-25T05:14:16.822Z,99345.70
2022-07-25T05:15:19.887Z,99336.42
2022-07-25T05:16:24.442Z,99348.38
2022-07-25T05:17:27.473Z,99342.09
2022-07-25T05:18:30.159Z,99339.62
2022-07-25T05:19:32.853Z,99342.85
2022-07-25T05:20:35.741Z,99344.73
2022-07-25T05:21:38.528Z,99347.97
2022-07-25T05:22:42.005Z,99353.12
2022-07-25T05:23:44.786Z,99350.38
2022-07-25T05:24:47.659Z,99351.97
2022-07-25T05:25:50.470Z,99341.61
2022-07-25T05:26:54.194Z,99349.25
2022-07-25T05:27:56.855Z,99350.89
2022-07-25T05:28:59.529Z,99353.05
2022-07-25T05:30:02.612Z,99349.25
2022-07-25T05:31:05.750Z,99349.53
2022-07-25T05:32:08.555Z,99352.49
2022-07-25T05:33:11.218Z,99343.52
2022-07-25T05:34:13.796Z,99352.77
2022-07-25T05:35:16.613Z,99353.06
2022-07-25T05:36:21.114Z,99347.14
2022-07-25T05:37:23.792Z,99347.66
2022-07-25T05:38:26.461Z,99353.63
2022-07-25T05:39:29.064Z,99353.06
2022-07-25T05:40:32.564Z,99353.05
2022-07-25T05:41:35.247Z,99357.36
2022-07-25T05:42:37.926Z,99346.42
2022-07-25T05:43:40.707Z,99351.24
2022-07-25T05:44:43.501Z,99344.41
2022-07-25T05:45:46.275Z,99350.59
2022-07-25T05:46:49.103Z,99347.28
2022-07-25T05:47:51.944Z,99351.58
2022-07-25T05:48:54.780Z,99345.27
2022-07-25T05:49:57.525Z,99346.02
2022-07-25T05:52:13.107Z,99344.84
2022-07-25T05:53:15.479Z,99341.91
2022-07-25T05:54:18.156Z,99338.10
2022-07-25T05:55:20.862Z,99345.99
2022-07-25T05:56:24.203Z,99341.11
2022-07-25T05:57:26.990Z,99342.84
2022-07-25T05:58:30.307Z,99344.78
2022-07-25T05:59:33.201Z,99344.55
2022-07-25T06:00:36.662Z,99345.41
2022-07-25T06:02:50.388Z,99342.25
2022-07-25T06:03:53.302Z,99348.92
2022-07-25T06:04:56.085Z,99343.80
2022-07-25T06:05:58.861Z,99341.61
2022-07-25T06:07:01.691Z,99339.16
2022-07-25T06:08:05.225Z,99343.80
2022-07-25T06:09:08.094Z,99342.95
2022-07-25T06:10:11.564Z,99339.43
2022-07-25T06:11:14.648Z,99343.46
2022-07-25T06:12:17.441Z,99337.97
2022-07-25T06:13:20.262Z,99342.53
2022-07-25T06:14:23.759Z,99332.39
2022-07-25T06:15:27.987Z,99328.78
2022-07-25T06:16:32.237Z,99323.22
2022-07-25T06:17:35.200Z,99331.97
2022-07-25T06:18:37.916Z,99324.28
2022-07-25T06:19:40.583Z,99332.94
2022-07-25T06:20:43.676Z,99332.59
2022-07-25T06:21:46.896Z,99329.29
2022-07-25T06:22:49.651Z,99325.70
2022-07-25T06:23:52.479Z,99329.00
2022-07-25T06:24:55.223Z,99325.19
2022-07-25T06:25:58.229Z,99316.78
2022-07-25T06:27:01.110Z,99330.13
2022-07-25T06:28:04.649Z,99324.09
2022-07-25T06:29:07.516Z,99323.52
2022-07-25T06:30:19.702Z,99321.05
2022-07-25T06:31:17.351Z,99324.86
2022-07-25T06:32:20.121Z,99321.84
2022-07-25T06:33:22.870Z,99316.65
2022-07-25T06:34:28.673Z,99322.91
2022-07-25T06:35:29.974Z,99322.91
2022-07-25T06:36:34.471Z,99325.85
2022-07-25T06:37:37.749Z,99322.61
2022-07-25T06:38:40.558Z,99317.97
2022-07-25T06:39:45.828Z,99322.33
2022-07-25T06:40:47.970Z,99324.98
2022-07-25T06:41:50.846Z,99323.09
2022-07-25T06:42:53.630Z,99326.29
2022-07-25T06:43:56.330Z,99311.24
2022-07-25T06:45:01.005Z,99315.31
2022-07-25T06:46:04.030Z,99309.27
2022-07-25T06:47:06.856Z,99309.20
2022-07-25T06:48:09.707Z,99316.29
2022-07-25T06:49:12.608Z,99327.27
2022-07-25T06:50:17.590Z,99310.62
2022-07-25T06:51:20.316Z,99307.89
2022-07-25T06:52:23.006Z,99323.20
2022-07-25T06:53:25.682Z,99308.47
2022-07-25T06:54:28.371Z,99316.88
2022-07-25T06:55:31.292Z,99311.42
2022-07-25T06:56:35.942Z,99325.05
2022-07-25T06:57:38.672Z,99315.20
2022-07-25T06:58:41.456Z,99318.43
2022-07-25T06:59:44.037Z,99319.23
2022-07-25T07:00:46.994Z,99317.05
2022-07-25T07:01:51.827Z,99309.95
2022-07-25T07:02:56.227Z,99310.17
2022-07-25T07:03:59.158Z,99314.16
2022-07-25T07:05:01.827Z,99310.52
2022-07-25T07:06:05.893Z,99316.64
2022-07-25T07:07:08.613Z,99309.92
2022-07-25T07:08:11.403Z,99315.80
2022-07-25T07:09:14.069Z,99305.90
2022-07-25T07:10:18.233Z,99314.83
2022-07-25T07:12:23.441Z,99303.02
2022-07-25T07:13:26.247Z,99311.95
2022-07-25T07:14:29.177Z,99307.20
2022-07-25T07:15:31.842Z,99311.56
2022-07-25T07:16:34.853Z,99306.09
2022-07-25T07:17:37.732Z,99313.85
2022-07-25T07:18:40.430Z,99313.85
2022-07-25T07:19:43.097Z,99313.34
2022-07-25T07:20:46.325Z,99319.99
2022-07-25T07:21:49.022Z,99320.67
2022-07-25T07:22:51.924Z,99313.13
2022-07-25T07:23:55.317Z,99315.65
2022-07-25T07:24:59.841Z,99314.52
2022-07-25T07:26:02.713Z,99314.47
2022-07-25T07:27:05.392Z,99309.52
2022-07-25T07:28:08.089Z,99309.01
2022-07-25T07:29:10.861Z,99314.67
2022-07-25T07:30:15.015Z,99308.42
2022-07-25T07:31:18.329Z,99318.00
2022-07-25T07:32:21.436Z,99307.32
2022-07-25T07:33:24.263Z,99302.07
2022-07-25T07:34:26.992Z,99308.27
2022-07-25T07:35:29.548Z,99302.92
2022-07-25T07:36:34.271Z,99309.42
2022-07-25T07:37:42.937Z,99301.88
2022-07-25T07:38:41.752Z,99299.38
2022-07-25T07:39:44.589Z,99303.34
2022-07-25T07:40:47.587Z,99307.61
2022-07-25T07:41:50.364Z,99303.16
2022-07-25T07:42:53.761Z,99308.84
2022-07-25T07:43:56.707Z,99310.55
2022-07-25T07:44:59.399Z,99308.52
2022-07-25T07:46:02.369Z,99309.11
2022-07-25T07:47:05.576Z,99304.45
2022-07-25T07:48:10.071Z,99304.58
2022-07-25T07:49:13.003Z,99308.02
2022-07-25T07:50:17.793Z,99301.05
2022-07-25T07:51:20.474Z,99301.78
2022-07-25T07:52:23.295Z,99307.78
2022-07-25T07:53:26.519Z,99317.88
2022-07-25T07:54:29.240Z,99306.80
2022-07-25T07:55:31.938Z,99304.36
2022-07-25T07:56:34.627Z,99305.70
2022-07-25T07:57:37.300Z,99299.50
2022-07-25T07:58:39.999Z,99314.87
2022-07-25T07:59:42.683Z,99309.41
2022-07-25T08:00:46.892Z,99309.48
2022-07-25T08:01:49.720Z,99313.84
2022-07-25T08:02:53.249Z,99312.21
2022-07-25T08:03:56.104Z,99307.34
2022-07-25T08:04:58.823Z,99306.81
2022-07-25T08:06:01.589Z,99309.25
2022-07-25T08:07:04.261Z,99313.61
2022-07-25T08:08:08.626Z,99314.72
2022-07-25T08:09:11.721Z,99310.68
2022-07-25T08:10:15.798Z,99314.21
2022-07-25T08:11:18.582Z,99311.48
2022-07-25T08:12:22.395Z,99320.70
2022-07-25T08:13:30.342Z,99311.38
2022-07-25T08:14:33.761Z,99320.41
2022-07-25T08:15:36.463Z,99314.04
2022-07-25T08:17:51.593Z,99312.09
2022-07-25T08:18:54.325Z,99312.39
2022-07-25T08:20:05.483Z,99309.47
2022-07-25T08:21:04.249Z,99312.81
2022-07-25T08:22:06.947Z,99319.07
2022-07-25T08:23:10.035Z,99318.25
2022-07-25T08:24:12.706Z,99313.71
2022-07-25T08:25:20.221Z,99314.11
2022-07-25T08:26:23.955Z,99309.93
2022-07-25T08:27:26.635Z,99313.80
2022-07-25T08:28:29.414Z,99316.02
2022-07-25T08:29:32.116Z,99316.45
2022-07-25T08:30:35.486Z,99311.70
2022-07-25T08:31:38.346Z,99311.40
2022-07-25T08:32:52.162Z,99311.40
2022-07-25T08:33:54.904Z,99310.84
2022-07-25T08:34:57.606Z,99309.64
2022-07-25T08:36:00.303Z,99311.17
2022-07-25T08:37:03.306Z,99311.89
2022-07-25T08:38:06.099Z,99316.53
2022-07-25T08:39:08.790Z,99315.43
2022-07-25T08:40:13.698Z,99317.87
2022-07-25T08:41:16.712Z,99315.02
2022-07-25T08:42:19.590Z,99313.72
2022-07-25T08:43:22.384Z,99316.53
2022-07-25T08:44:26.333Z,99313.11
2022-07-25T08:45:29.793Z,99309.86
2022-07-25T08:46:34.478Z,99308.55
2022-07-25T08:47:37.228Z,99310.23
2022-07-25T08:48:39.925Z,99302.23
2022-07-25T08:49:42.657Z,99303.53
2022-07-25T08:50:46.265Z,99311.44
2022-07-25T08:51:51.601Z,99305.24
2022-07-25T08:53:04.893Z,99299.64
2022-07-25T08:53:58.378Z,99303.08
2022-07-25T08:55:06.302Z,99296.67
2022-07-25T08:56:16.011Z,99300.83
2022-07-25T08:57:15.752Z,99305.51
2022-07-25T08:58:18.455Z,99306.44
2022-07-25T08:59:21.128Z,99308.69
2022-07-25T09:00:26.144Z,99311.52
2022-07-25T09:01:32.969Z,99307.67
2022-07-25T09:02:34.046Z,99308.47
2022-07-25T09:03:36.930Z,99307.36
2022-07-25T09:04:39.730Z,99302.51
2022-07-25T09:05:42.394Z,99307.36
2022-07-25T09:06:49.882Z,99308.69
2022-07-25T09:07:53.288Z,99307.45
2022-07-25T09:08:58.198Z,99298.41
2022-07-25T09:10:16.596Z,99301.45
2022-07-25T09:15:38.745Z,99301.09
2022-07-25T09:16:43.310Z,99302.91
2022-07-25T09:17:51.654Z,99297.65
2022-07-25T09:20:18.054Z,99291.81
2022-07-25T09:21:18.112Z,99297.52
2022-07-25T09:22:20.782Z,99297.42
2022-07-25T09:23:38.304Z,99293.76
2022-07-25T09:24:46.035Z,99294.73
2022-07-25T09:25:48.829Z,99290.45
2022-07-25T09:26:52.839Z,99293.25
2022-07-25T09:27:56.450Z,99286.84
2022-07-25T09:28:59.156Z,99286.11
2022-07-25T09:30:05.591Z,99281.95
2022-07-25T09:31:08.435Z,99280.04
2022-07-25T09:32:16.994Z,99293.42
2022-07-25T09:33:20.430Z,99286.63
2022-07-25T09:34:39.966Z,99298.07
2022-07-25T09:35:42.953Z,99291.97
2022-07-25T09:36:55.037Z,99290.72
2022-07-25T09:38:15.780Z,99286.23
2022-07-25T09:39:18.452Z,99289.84
2022-07-25T09:40:22.055Z,99282.16
2022-07-25T09:41:36.446Z,99280.09
2022-07-25T09:42:39.383Z,99289.00
2022-07-25T09:43:42.958Z,99279.82
2022-07-25T09:45:04.757Z,99296.59
2022-07-25T09:46:08.734Z,99298.02
2022-07-25T09:47:12.524Z,99295.11
2022-07-25T09:48:15.324Z,99280.72
2022-07-25T09:49:18.047Z,99276.98
2022-07-25T09:50:22.390Z,99295.05
2022-07-25T09:51:25.772Z,99291.83
2022-07-25T09:52:28.470Z,99284.55
2022-07-25T09:53:31.479Z,99284.55
2022-07-25T09:54:34.292Z,99281.30
2022-07-25T09:55:37.046Z,99284.67
2022-07-25T09:56:40.149Z,99280.76
2022-07-25T09:57:42.864Z,99281.53
2022-07-25T09:58:45.762Z,99284.31
2022-07-25T09:59:48.437Z,99295.06
2022-07-25T10:00:51.919Z,99294.88
2022-07-25T10:02:08.989Z,99300.98
2022-07-25T10:03:17.807Z,99294.98
2022-07-25T10:04:22.129Z,99294.37
2022-07-25T10:05:30.884Z,99301.16
2022-07-25T10:06:50.016Z,99296.00
2022-07-25T10:07:53.038Z,99294.57
2022-07-25T10:08:56.021Z,99292.95
2022-07-25T10:09:58.728Z,99288.47
2022-07-25T10:11:02.039Z,99296.55
2022-07-25T10:12:09.088Z,99290.59
2022-07-25T10:13:13.809Z,99291.08
2022-07-25T10:14:16.444Z,99287.73
2022-07-25T10:15:19.130Z,99286.80
2022-07-25T10:16:25.510Z,99288.29
2022-07-25T10:17:28.375Z,99286.86
2022-07-25T10:19:56.882Z,99296.80
2022-07-25T10:22:29.629Z,99283.95
2022-07-25T10:23:26.221Z,99287.83
2022-07-25T10:25:48.929Z,99280.30
2022-07-25T10:26:52.815Z,99277.71
2022-07-25T10:28:00.471Z,99285.94
2022-07-25T10:29:08.595Z,99280.94
2022-07-25T10:30:35.615Z,99275.14
2022-07-25T10:35:35.346Z,99278.05
2022-07-25T10:37:57.020Z,99282.56
2022-07-25T10:39:00.355Z,99277.50
2022-07-25T10:40:03.806Z,99281.98
2022-07-25T10:41:06.494Z,99289.66
2022-07-25T10:42:14.635Z,99281.55
2022-07-25T10:43:18.536Z,99289.12
2022-07-25T10:44:21.346Z,99294.59
2022-07-25T10:45:25.748Z,99286.48
2022-07-25T10:46:29.249Z,99287.42
2022-07-25T10:47:33.971Z,99291.80
2022-07-25T10:48:37.056Z,99290.69
2022-07-25T10:50:00.224Z,99292.80
2022-07-25T10:50:57.652Z,99291.34
2022-07-25T10:52:01.631Z,99287.48
2022-07-25T10:53:04.420Z,99290.72
2022-07-25T10:54:14.824Z,99284.44
2022-07-25T10:55:23.487Z,99286.06
2022-07-25T10:56:28.059Z,99284.81
2022-07-25T10:57:32.145Z,99286.92
2022-07-25T11:00:05.751Z,99281.03
2022-07-25T11:01:08.519Z,99277.44
2022-07-25T11:02:11.980Z,99287.15
2022-07-25T11:03:18.454Z,99283.46
2022-07-25T11:04:19.611Z,99283.31
2022-07-25T11:05:22.647Z,99277.71
2022-07-25T11:06:40.779Z,99277.87
2022-07-25T11:08:19.097Z,99283.53
2022-07-25T11:08:55.337Z,99285.35
2022-07-25T11:09:59.499Z,99281.78
2022-07-25T11:11:02.630Z,99285.03
2022-07-25T11:12:05.810Z,99283.58
2022-07-25T11:13:14.790Z,99286.95
2022-07-25T11:14:26.893Z,99284.52
2022-07-25T11:15:29.572Z,99284.20
2022-07-25T11:16:32.702Z,99277.29
2022-07-25T11:17:35.393Z,99290.64
2022-07-25T11:18:39.443Z,99283.84
2022-07-25T11:19:43.195Z,99281.57
2022-07-25T11:20:46.300Z,99285.58
2022-07-25T11:21:50.971Z,99278.78
2022-07-25T11:22:54.576Z,99282.16
2022-07-25T11:23:59.156Z,99286.47
2022-07-25T11:25:02.754Z,99282.61
2022-07-25T11:26:08.619Z,99282.13
2022-07-25T11:27:14.320Z,99274.39
2022-07-25T11:28:17.142Z,99286.84
2022-07-25T11:29:23.428Z,99271.38
2022-07-25T11:30:26.976Z,99271.72
2022-07-25T11:31:29.688Z,99288.05
2022-07-25T11:33:57.799Z,99278.83
2022-07-25T11:35:00.527Z,99271.02
2022-07-25T11:36:06.346Z,99267.66
2022-07-25T11:37:10.431Z,99270.70
2022-07-25T11:38:13.641Z,99264.13
2022-07-25T11:39:18.880Z,99252.45
2022-07-25T11:40:22.518Z,99268.59
2022-07-25T11:42:42.576Z,99272.13
2022-07-25T11:43:48.492Z,99272.23
2022-07-25T11:44:51.788Z,99270.23
2022-07-25T11:46:00.990Z,99270.53
2022-07-25T11:47:09.337Z,99271.65
2022-07-25T11:49:24.118Z,99264.13
2022-07-25T11:50:31.646Z,99267.64
2022-07-25T11:51:37.866Z,99259.91
2022-07-25T11:52:41.225Z,99259.79
2022-07-25T11:53:50.387Z,99266.91
2022-07-25T11:57:27.843Z,99258.25
2022-07-25T11:58:30.558Z,99260.48
2022-07-25T12:00:50.588Z,99251.50
2022-07-25T12:01:53.325Z,99246.87
2022-07-25T12:04:18.596Z,99247.75
2022-07-25T12:05:21.991Z,99238.21
2022-07-25T12:06:28.383Z,99241.27
2022-07-25T12:07:35.994Z,99243.39
2022-07-25T12:08:40.312Z,99240.64
2022-07-25T12:09:42.913Z,99244.83
2022-07-25T12:10:46.533Z,99251.11
2022-07-25T12:11:49.474Z,99240.13
2022-07-25T12:14:05.791Z,99250.17
2022-07-25T12:16:22.348Z,99246.95
2022-07-25T12:18:46.037Z,99245.48
2022-07-25T12:19:48.626Z,99244.34
2022-07-25T12:20:51.640Z,99241.27
2022-07-25T12:21:54.322Z,99240.96
2022-07-25T12:22:58.992Z,99254.17
2022-07-25T12:24:01.712Z,99243.70
2022-07-25T12:25:05.767Z,99245.63
2022-07-25T12:26:10.678Z,99240.64
2022-07-25T12:27:13.582Z,99249.35
2022-07-25T12:28:16.272Z,99233.36
2022-07-25T12:29:18.967Z,99241.62
2022-07-25T12:30:24.015Z,99229.34
2022-07-25T12:31:26.831Z,99230.02
2022-07-25T12:32:29.654Z,99231.28
2022-07-25T12:33:32.440Z,99234.86
2022-07-25T12:34:35.286Z,99238.72
2022-07-25T12:35:39.546Z,99239.20
2022-07-25T12:36:42.685Z,99242.45
2022-07-25T12:37:46.043Z,99236.31
2022-07-25T12:38:48.745Z,99243.10
2022-07-25T12:39:51.937Z,99239.53
2022-07-25T12:40:55.137Z,99234.04
2022-07-25T12:41:57.904Z,99233.72
2022-07-25T12:43:00.698Z,99232.92
2022-07-25T12:44:03.719Z,99236.31
2022-07-25T12:45:07.294Z,99226.77
2022-07-25T12:46:10.829Z,99231.47
2022-07-25T12:47:13.679Z,99229.67
2022-07-25T12:48:16.521Z,99228.40
2022-07-25T12:49:19.315Z,99229.52
2022-07-25T12:50:22.698Z,99233.88
2022-07-25T12:51:25.376Z,99232.25
2022-07-25T12:52:28.051Z,99229.34
2022-07-25T12:53:30.659Z,99224.83
2022-07-25T12:54:33.676Z,99231.28
2022-07-25T12:56:46.965Z,99224.84
2022-07-25T12:57:49.719Z,99222.23
2022-07-25T12:58:52.388Z,99225.31
2022-07-25T13:01:02.315Z,99217.25
2022-07-25T13:02:03.939Z,99214.17
2022-07-25T13:03:08.772Z,99211.28
2022-07-25T13:04:11.561Z,99219.52
2022-07-25T13:05:14.240Z,99217.90
2022-07-25T13:06:17.845Z,99211.10
2022-07-25T13:07:20.541Z,99207.38
2022-07-25T13:08:23.922Z,99203.84
2022-07-25T13:09:27.082Z,99203.03